Terminal Aerodrome Forecast
Issued by NWS

Home | Current Version | Previous Version | Text Only | Print | Product List | Glossary On
Versions: 1 2 3 4 5 6 7 8 9 10 11 12 13 14 15 16 17 18 19 20 21
000
FTUS46 KSGX 210500
TAFONT
TAF
KONT 210520Z 2106/2212 24005KT P6SM SCT150
      TEMPO 2112/2115 BKN018
     FM212100 25012KT P6SM SCT090 SCT150
     FM220400 24005KT P6SM SCT150=

USA.gov is the U.S. government's official web portal to all federal, state and local government web resources and services.